Time;durP1;ratioP1;P1;durP2;ratioP2;P2;SDS_P1;SDS_P2;PMS_P1;PMS_P2;Temp;Humidity;BMP_temperature;BMP_pressure;BME280_temperature;BME280_humidity;BME280_pressure;Samples;Min_cycle;Max_cycle;Signal;HPM_P1;HPM_P2
2024/02/21 00:02:38;;;;;;;0.88;0.20;;;2.50;82.80;;;;;;20523839;28;21282;-41
2024/02/21 00:12:39;;;;;;;1.92;0.20;;;2.40;83.20;;;;;;20506737;28;20136;-41
2024/02/21 00:22:43;;;;;;;0.52;0.10;;;2.40;83.10;;;;;;20522560;28;20183;-41
2024/02/21 00:32:44;;;;;;;1.58;0.20;;;2.20;84.90;;;;;;20524977;28;21704;-41
2024/02/21 00:42:47;;;;;;;0.52;0.20;;;2.10;83.00;;;;;;20520683;28;20511;-39
2024/02/21 00:52:49;;;;;;;1.20;0.20;;;2.00;85.40;;;;;;20522713;28;20879;-42
2024/02/21 01:02:50;;;;;;;0.65;0.20;;;1.50;88.20;;;;;;20521081;28;20132;-40
2024/02/21 01:12:52;;;;;;;0.57;0.20;;;1.10;89.70;;;;;;20519882;28;20245;-41
2024/02/21 01:22:54;;;;;;;1.38;0.45;;;1.70;86.70;;;;;;20503246;28;20160;-40
2024/02/21 01:32:55;;;;;;;0.32;0.10;;;1.20;89.70;;;;;;20519677;28;20168;-41
2024/02/21 01:42:57;;;;;;;0.30;0.20;;;0.80;90.30;;;;;;20522498;28;20617;-40
2024/02/21 01:53:00;;;;;;;0.20;0.10;;;0.60;91.10;;;;;;20515823;28;21207;-40
2024/02/21 02:03:01;;;;;;;0.50;0.10;;;1.00;89.00;;;;;;20521084;28;20503;-41
2024/02/21 02:13:03;;;;;;;0.40;0.10;;;1.30;89.00;;;;;;20529222;28;20144;-41
2024/02/21 02:23:11;;;;;;;0.17;0.08;;;1.10;88.60;;;;;;20518267;28;21252;-44
2024/02/21 02:33:13;;;;;;;0.35;0.10;;;1.20;87.90;;;;;;20527567;28;20543;-41
2024/02/21 02:43:15;;;;;;;0.55;0.10;;;1.40;86.80;;;;;;20530121;28;20727;-42
2024/02/21 02:53:17;;;;;;;0.30;0.10;;;1.50;87.40;;;;;;20511514;28;20175;-42
2024/02/21 03:03:19;;;;;;;0.82;0.10;;;1.20;86.40;;;;;;20513433;28;21761;-40
2024/02/21 03:13:20;;;;;;;0.50;0.20;;;1.50;87.90;;;;;;20528493;28;20499;-41
2024/02/21 03:23:22;;;;;;;0.52;0.20;;;1.00;89.00;;;;;;20524898;28;20633;-41
2024/02/21 03:33:24;;;;;;;0.10;0.00;;;1.00;89.70;;;;;;20527705;28;20262;-43
2024/02/21 03:43:25;;;;;;;0.00;0.00;;;0.90;89.70;;;;;;20527044;28;20575;-40
2024/02/21 03:53:28;;;;;;;0.70;0.25;;;0.90;90.70;;;;;;20526860;28;20523;-41
2024/02/21 04:03:30;;;;;;;0.43;0.10;;;0.70;91.00;;;;;;20524951;28;20069;-42
2024/02/21 04:13:32;;;;;;;0.17;0.08;;;0.70;91.20;;;;;;20523373;28;20483;-42
2024/02/21 04:23:34;;;;;;;0.50;0.20;;;0.20;91.90;;;;;;20520761;28;20251;-43
2024/02/21 04:33:35;;;;;;;0.10;0.10;;;-0.10;92.20;;;;;;20523832;28;20089;-41
2024/02/21 04:43:37;;;;;;;0.50;0.20;;;0.10;92.30;;;;;;20519272;28;20064;-42
2024/02/21 04:53:39;;;;;;;1.30;0.10;;;0.00;91.80;;;;;;20519026;28;20826;-42
2024/02/21 05:03:40;;;;;;;0.20;0.10;;;0.00;92.00;;;;;;20515173;28;20138;-40
2024/02/21 05:13:42;;;;;;;0.20;0.10;;;0.00;92.20;;;;;;20517756;28;20120;-41
2024/02/21 05:23:44;;;;;;;0.60;0.28;;;-0.20;93.00;;;;;;20503706;28;20111;-40
2024/02/21 05:33:47;;;;;;;0.15;0.10;;;-0.20;92.90;;;;;;20520470;28;20164;-40
2024/02/21 05:43:48;;;;;;;0.80;0.28;;;-0.40;94.00;;;;;;20525081;28;20932;-41
2024/02/21 05:53:51;;;;;;;0.75;0.20;;;-0.50;93.80;;;;;;20534196;28;20139;-42
2024/02/21 06:03:52;;;;;;;0.50;0.10;;;-0.60;93.70;;;;;;20517772;28;20513;-42
2024/02/21 06:13:57;;;;;;;0.13;0.10;;;-0.60;94.30;;;;;;20533534;28;21321;-41
2024/02/21 06:23:59;;;;;;;0.55;0.20;;;-0.60;94.10;;;;;;20534059;28;20108;-40
2024/02/21 06:34:01;;;;;;;0.25;0.10;;;-0.60;94.20;;;;;;20531706;28;20171;-40
2024/02/21 06:44:03;;;;;;;0.10;0.10;;;-0.60;94.10;;;;;;20529807;28;20136;-41
2024/02/21 06:54:04;;;;;;;0.40;0.10;;;-0.40;94.30;;;;;;20524703;28;20476;-40
2024/02/21 07:04:09;;;;;;;0.95;0.10;;;-0.10;94.00;;;;;;20525767;28;20152;-40
2024/02/21 07:14:18;;;;;;;0.68;0.20;;;0.00;93.70;;;;;;20521209;28;20033;-42
2024/02/21 07:24:20;;;;;;;0.50;0.30;;;0.20;93.90;;;;;;20523357;28;21343;-40
2024/02/21 07:34:22;;;;;;;0.52;0.28;;;0.70;92.90;;;;;;20522889;28;20774;-43
2024/02/21 07:44:23;;;;;;;0.65;0.20;;;1.20;92.60;;;;;;20521616;28;20310;-42
2024/02/21 07:54:25;;;;;;;0.47;0.20;;;2.10;91.30;;;;;;20357250;28;20115;-42
2024/02/21 08:04:28;;;;;;;0.43;0.10;;;3.30;89.50;;;;;;20361233;28;20129;-42
2024/02/21 08:14:29;;;;;;;0.32;0.10;;;4.60;85.20;;;;;;20359245;28;20136;-42
2024/02/21 08:24:31;;;;;;;1.33;0.28;;;5.80;83.10;;;;;;20355762;28;21007;-42
2024/02/21 08:34:34;;;;;;;1.10;0.60;;;7.20;81.90;;;;;;20359066;28;20188;-42
2024/02/21 08:44:35;;;;;;;0.70;0.20;;;7.80;78.80;;;;;;20356974;28;20121;-44
2024/02/21 08:54:38;;;;;;;0.63;0.40;;;8.30;77.60;;;;;;20516241;28;20126;-45
2024/02/21 09:04:40;;;;;;;5.20;1.88;;;8.70;74.80;;;;;;20510446;28;20148;-42
2024/02/21 09:14:42;;;;;;;2.33;0.50;;;9.10;77.20;;;;;;20495510;28;21710;-42
2024/02/21 09:24:45;;;;;;;0.80;0.50;;;9.80;76.60;;;;;;20529010;28;20163;-41
2024/02/21 09:34:49;;;;;;;4.25;1.77;;;10.30;74.40;;;;;;20531441;28;20164;-44
2024/02/21 09:44:51;;;;;;;3.45;2.45;;;10.50;75.10;;;;;;20528119;28;20429;-42
2024/02/21 09:54:54;;;;;;;7.30;3.90;;;10.50;78.30;;;;;;20526650;28;20048;-44
2024/02/21 10:04:56;;;;;;;8.90;6.63;;;11.00;78.90;;;;;;20512285;28;20116;-42
2024/02/21 10:15:05;;;;;;;14.10;9.90;;;11.00;83.50;;;;;;20529699;28;20957;-43
2024/02/21 10:25:12;;;;;;;19.17;13.27;;;11.20;86.20;;;;;;20527022;28;20112;-42
2024/02/21 10:35:14;;;;;;;18.20;13.63;;;11.30;90.30;;;;;;20510834;28;21221;-42
2024/02/21 10:45:16;;;;;;;22.77;16.25;;;11.20;90.40;;;;;;20509634;28;20163;-42
2024/02/21 10:55:33;;;;;;;30.35;21.58;;;11.70;91.90;;;;;;20525311;28;20041;-43
2024/02/21 11:05:35;;;;;;;31.60;22.55;;;11.10;94.00;;;;;;20524868;28;20152;-43
2024/02/21 11:15:37;;;;;;;35.05;23.85;;;11.30;95.10;;;;;;20523254;28;20042;-43
2024/02/21 11:25:42;;;;;;;38.00;25.45;;;11.40;94.70;;;;;;20527055;28;20152;-44
2024/02/21 11:35:44;;;;;;;36.88;25.63;;;10.70;96.30;;;;;;20524187;28;20200;-41
2024/02/21 11:45:46;;;;;;;34.40;23.40;;;10.30;97.50;;;;;;20347989;28;21211;-41
2024/02/21 11:55:47;;;;;;;37.03;25.08;;;10.20;98.20;;;;;;20352361;28;20191;-41
2024/02/21 12:05:50;;;;;;;33.63;22.83;;;10.10;97.90;;;;;;20348244;28;20134;-43
2024/02/21 12:15:51;;;;;;;24.00;17.27;;;10.60;98.00;;;;;;20368513;28;20753;-43
2024/02/21 12:25:54;;;;;;;40.88;27.55;;;11.50;95.00;;;;;;20520816;28;20043;-42
2024/02/21 12:35:56;;;;;;;38.97;26.52;;;11.50;97.60;;;;;;20517111;28;20878;-42
2024/02/21 12:45:57;;;;;;;44.08;29.60;;;11.70;96.90;;;;;;20521107;28;20087;-43
2024/02/21 12:56:04;;;;;;;45.97;30.83;;;11.80;97.30;;;;;;20516866;28;20125;-44
2024/02/21 13:06:10;;;;;;;41.80;28.77;;;11.40;97.90;;;;;;20520421;28;20195;-42
2024/02/21 13:16:12;;;;;;;42.08;27.83;;;11.00;98.30;;;;;;20515142;28;20530;-43
2024/02/21 13:26:15;;;;;;;34.97;23.23;;;11.20;98.30;;;;;;20519813;28;20772;-42
2024/02/21 13:36:18;;;;;;;36.70;24.33;;;10.60;97.80;;;;;;20517881;28;20787;-44
2024/02/21 13:46:20;;;;;;;37.00;24.98;;;10.00;99.10;;;;;;20515439;28;20623;-44
2024/02/21 13:56:22;;;;;;;46.33;28.52;;;9.80;99.90;;;;;;20516441;28;20127;-43
2024/02/21 14:06:24;;;;;;;46.63;31.08;;;9.70;99.90;;;;;;20524453;28;20156;-41
2024/02/21 14:16:25;;;;;;;52.00;30.88;;;9.30;99.90;;;;;;20532004;28;20515;-43
2024/02/21 14:26:27;;;;;;;49.10;31.83;;;9.00;99.90;;;;;;20527361;28;20130;-42
2024/02/21 14:36:30;;;;;;;52.97;34.25;;;8.60;99.90;;;;;;20529200;28;20127;-42
2024/02/21 14:46:32;;;;;;;52.08;33.88;;;8.20;99.90;;;;;;20526767;28;20172;-43
2024/02/21 14:56:34;;;;;;;57.88;35.03;;;7.80;99.90;;;;;;20525456;28;20160;-43
2024/02/21 15:06:37;;;;;;;57.65;36.25;;;7.30;99.90;;;;;;20523483;28;20049;-42
2024/02/21 15:16:39;;;;;;;59.08;37.60;;;6.90;99.90;;;;;;20528348;28;20128;-43
2024/02/21 15:26:41;;;;;;;63.70;39.38;;;6.70;99.90;;;;;;20522799;28;20041;-42
2024/02/21 15:36:46;;;;;;;66.22;40.47;;;6.60;99.90;;;;;;20523888;28;20193;-42
2024/02/21 15:46:48;;;;;;;68.90;39.05;;;6.30;99.90;;;;;;20523521;28;21192;-42
2024/02/21 15:56:51;;;;;;;62.70;36.92;;;6.20;99.90;;;;;;20520142;28;20064;-42
2024/02/21 16:06:52;;;;;;;58.53;36.00;;;6.10;99.90;;;;;;20521530;28;20175;-41
2024/02/21 16:16:56;;;;;;;55.88;33.92;;;5.80;99.90;;;;;;20517566;28;20087;-43
2024/02/21 16:26:58;;;;;;;51.85;30.20;;;5.30;99.90;;;;;;20520903;28;21155;-41
2024/02/21 16:37:00;;;;;;;54.03;31.05;;;4.70;99.90;;;;;;20502913;28;20136;-42
2024/02/21 16:47:05;;;;;;;76.68;39.78;;;4.10;99.90;;;;;;20520559;28;20136;-41
2024/02/21 16:57:07;;;;;;;82.03;42.78;;;3.50;99.90;;;;;;20522472;28;21248;-43
2024/02/21 17:07:09;;;;;;;79.50;38.08;;;3.10;99.90;;;;;;20523196;28;20176;-42
2024/02/21 17:17:14;;;;;;;69.93;35.58;;;2.90;99.90;;;;;;20502980;28;20235;-42
2024/02/21 17:27:19;;;;;;;67.72;32.25;;;2.70;99.90;;;;;;20519243;28;20045;-40
2024/02/21 17:37:21;;;;;;;64.30;32.78;;;2.50;99.90;;;;;;20522192;28;20275;-41
2024/02/21 17:47:26;;;;;;;63.70;31.45;;;2.40;99.90;;;;;;20534044;28;20053;-40
2024/02/21 17:57:28;;;;;;;60.97;30.27;;;2.30;99.90;;;;;;20534216;28;20150;-42
2024/02/21 18:07:33;;;;;;;52.65;27.98;;;2.30;99.90;;;;;;20437242;28;20669;-41
2024/02/21 18:17:36;;;;;;;43.40;22.65;;;2.40;99.90;;;;;;20423032;28;20061;-41
2024/02/21 18:27:38;;;;;;;42.08;22.30;;;2.80;99.90;;;;;;20440184;28;20053;-40
2024/02/21 18:37:40;;;;;;;39.33;20.33;;;3.10;99.90;;;;;;20512432;28;20136;-41
2024/02/21 18:47:43;;;;;;;36.10;19.90;;;3.50;99.90;;;;;;20528908;28;20199;-43
2024/02/21 18:57:45;;;;;;;29.00;15.90;;;3.50;99.90;;;;;;20531398;28;20128;-42
2024/02/21 19:07:47;;;;;;;39.20;21.17;;;3.60;99.90;;;;;;20529671;28;20176;-42
2024/02/21 19:17:49;;;;;;;51.90;28.75;;;3.90;99.90;;;;;;20526619;28;20182;-41
2024/02/21 19:27:51;;;;;;;53.60;27.92;;;3.70;99.90;;;;;;20529708;28;20110;-40
2024/02/21 19:37:52;;;;;;;79.68;40.28;;;3.40;99.90;;;;;;20527513;28;20147;-41
2024/02/21 19:47:58;;;;;;;90.60;42.63;;;3.20;99.90;;;;;;20527009;28;20144;-40
2024/02/21 19:58:00;;;;;;;78.93;38.55;;;3.10;99.90;;;;;;20525052;28;20179;-42
2024/02/21 20:08:02;;;;;;;65.53;33.10;;;2.70;99.90;;;;;;20524404;28;20034;-54
2024/02/21 20:18:06;;;;;;;72.60;36.80;;;2.40;99.90;;;;;;20524194;28;20482;-41
2024/02/21 20:28:10;;;;;;;121.03;51.25;;;2.70;99.90;;;;;;20523695;28;21061;-44
2024/02/21 20:38:12;;;;;;;94.10;41.85;;;2.80;99.90;;;;;;20523067;28;20847;-40
2024/02/21 20:48:14;;;;;;;90.20;42.00;;;2.50;99.90;;;;;;20522649;28;20045;-41
2024/02/21 20:58:16;;;;;;;97.07;45.35;;;2.30;99.90;;;;;;20520581;28;20132;-40
2024/02/21 21:08:18;;;;;;;97.00;41.47;;;2.20;99.90;;;;;;20523340;28;20183;-40
2024/02/21 21:18:21;;;;;;;146.02;58.40;;;2.20;99.90;;;;;;20522466;28;20069;-42
2024/02/21 21:28:24;;;;;;;186.88;64.82;;;2.50;99.90;;;;;;20523073;28;20147;-41
2024/02/21 21:38:27;;;;;;;184.85;60.70;;;3.10;99.90;;;;;;20523280;28;20069;-41
2024/02/21 21:48:29;;;;;;;120.47;52.05;;;3.20;99.90;;;;;;20520229;28;20179;-41
2024/02/21 21:58:31;;;;;;;138.07;56.22;;;3.10;99.90;;;;;;20521606;28;20809;-40
2024/02/21 22:08:33;;;;;;;123.90;53.38;;;2.90;99.90;;;;;;20519645;28;20041;-44
2024/02/21 22:18:35;;;;;;;99.50;45.45;;;2.90;99.90;;;;;;20517753;28;21193;-42
2024/02/21 22:28:37;;;;;;;93.32;41.58;;;2.60;99.90;;;;;;20527367;28;21112;-40
2024/02/21 22:38:41;;;;;;;92.00;42.08;;;2.40;99.90;;;;;;20518309;28;20156;-44
2024/02/21 22:48:46;;;;;;;117.53;48.70;;;2.30;99.90;;;;;;20532770;28;21235;-40
2024/02/21 22:58:48;;;;;;;87.93;39.33;;;2.50;99.90;;;;;;20530777;28;20087;-42
2024/02/21 23:08:51;;;;;;;83.85;37.92;;;2.60;99.90;;;;;;20527445;28;20191;-40
2024/02/21 23:18:53;;;;;;;87.10;39.25;;;2.30;99.90;;;;;;20529148;28;20167;-41
2024/02/21 23:28:55;;;;;;;67.57;33.50;;;2.60;99.90;;;;;;20530077;28;20068;-41
2024/02/21 23:38:57;;;;;;;54.92;30.05;;;2.90;99.90;;;;;;20526261;28;20061;-41
2024/02/21 23:49:02;;;;;;;49.13;26.13;;;3.10;99.90;;;;;;20525882;28;20971;-42
2024/02/21 23:59:04;;;;;;;50.97;27.73;;;3.20;99.90;;;;;;20525583;28;20128;-43
